Terminal Aerodrome Forecast
Issued by NWS

Home | Current Version | Previous Version | Text Only | Print | Product List | Glossary On
Versions: 1 2 3 4 5 6 7 8 9 10 11 12 13 14 15
287
FTUS44 KCRP 191743
TAFLRD
TAF
KLRD 191743Z 1918/2018 VRB06KT P6SM SCT040
     FM200900 15005KT P6SM BKN035
     FM201200 VRB04KT 6SM BR OVC015=

USA.gov is the U.S. government's official web portal to all federal, state and local government web resources and services.